Terminal Aerodrome Forecast
Issued by NWS

Home | Current Version | Previous Version | Text Only | Print | Product List | Glossary On
Versions: 1 2 3 4 5 6 7 8 9 10 11 12 13 14 15 16 17 18 19 20 21 22 23 24
000
FTUS41 KBUF 282320
TAFIAG
TAF
KIAG 282320Z 2900/2924 09010KT P6SM BKN080
     FM290200 09010KT P6SM SCT080
     FM290600 09010KT P6SM BKN080
     FM290900 08011KT P6SM VCSH OVC060
     FM291200 07013G19KT P6SM -SHRA OVC040
     FM291500 08014G21KT 6SM -SHRA OVC015
     FM292200 08013KT P6SM VCSH OVC035=

USA.gov is the U.S. government's official web portal to all federal, state and local government web resources and services.